createdAt,value
2018-05-10T00:01:21.728Z,58.52
2018-05-10T00:03:48.628Z,57.52
2018-05-10T00:06:14.554Z,58.21
2018-05-10T00:08:43.489Z,57.15
2018-05-10T00:11:09.468Z,57.00
2018-05-10T00:13:38.359Z,55.47
2018-05-10T00:16:04.348Z,53.11
2018-05-10T00:18:30.293Z,53.29
2018-05-10T00:20:56.274Z,53.27
2018-05-10T00:23:22.212Z,55.13
2018-05-10T00:25:49.784Z,54.16
2018-05-10T00:28:15.761Z,54.16
2018-05-10T00:30:44.853Z,54.80
2018-05-10T00:33:10.801Z,54.89
2018-05-10T00:35:39.612Z,53.26
2018-05-10T00:38:06.919Z,51.60
2018-05-10T00:40:34.294Z,50.44
2018-05-10T00:43:00.240Z,51.33
2018-05-10T00:45:30.014Z,49.71
2018-05-10T00:47:55.958Z,51.17
2018-05-10T00:50:23.888Z,54.21
2018-05-10T00:52:49.870Z,56.79
2018-05-10T00:55:15.844Z,56.64
2018-05-10T00:57:41.757Z,57.11
2018-05-10T01:00:07.697Z,55.43
2018-05-10T01:02:35.312Z,56.76
2018-05-10T01:05:01.213Z,58.02
2018-05-10T01:07:31.173Z,55.51
2018-05-10T01:09:57.092Z,54.34
2018-05-10T01:12:26.148Z,55.99
2018-05-10T01:14:52.595Z,57.27
2018-05-10T01:17:20.144Z,57.23
2018-05-10T01:19:46.102Z,59.38
2018-05-10T01:22:15.123Z,59.73
2018-05-10T01:24:44.630Z,56.41
2018-05-10T01:27:10.624Z,57.08
2018-05-10T01:29:36.570Z,49.29
2018-05-10T01:32:02.519Z,45.95
2018-05-10T01:34:28.458Z,51.75
2018-05-10T01:36:54.423Z,51.61
2018-05-10T01:39:20.359Z,56.13
2018-05-10T01:41:46.275Z,58.47
2018-05-10T01:44:15.225Z,59.22
2018-05-10T01:46:41.154Z,59.26
2018-05-10T01:49:11.381Z,64.73
2018-05-10T01:51:37.327Z,55.60
2018-05-10T01:54:06.405Z,63.95
2018-05-10T01:56:32.332Z,64.88
2018-05-10T01:58:59.528Z,68.92
2018-05-10T02:01:25.480Z,71.80
2018-05-10T02:03:54.645Z,70.81
2018-05-10T02:06:20.598Z,70.45
2018-05-10T02:08:46.548Z,71.64
2018-05-10T02:11:12.441Z,69.57
2018-05-10T02:13:38.356Z,71.94
2018-05-10T02:16:05.684Z,74.40
2018-05-10T02:18:31.590Z,75.36
2018-05-10T02:21:00.878Z,76.20
2018-05-10T02:23:26.802Z,77.10
2018-05-10T02:25:55.759Z,77.60
2018-05-10T02:28:21.716Z,76.80
2018-05-10T02:30:51.321Z,77.20
2018-05-10T02:33:17.241Z,77.19
2018-05-10T02:35:46.272Z,76.96
2018-05-10T02:38:12.277Z,78.05
2018-05-10T02:40:40.024Z,77.72
2018-05-10T02:43:05.991Z,77.36
2018-05-10T02:45:31.923Z,77.96
2018-05-10T02:47:57.883Z,77.36
2018-05-10T02:50:23.803Z,77.05
2018-05-10T02:52:50.973Z,76.04
2018-05-10T02:55:16.936Z,76.09
2018-05-10T02:57:45.860Z,77.29
2018-05-10T03:00:11.783Z,79.10
2018-05-10T03:02:40.768Z,79.17
2018-05-10T03:05:06.686Z,79.27
2018-05-10T03:07:35.644Z,78.74
2018-05-10T03:10:01.574Z,76.94
2018-05-10T03:12:30.493Z,76.49
2018-05-10T03:15:00.843Z,76.82
2018-05-10T03:17:26.793Z,76.64
2018-05-10T03:19:52.723Z,77.30
2018-05-10T03:22:18.651Z,77.58
2018-05-10T03:24:44.590Z,76.94
2018-05-10T03:27:10.507Z,78.23
2018-05-10T03:29:36.416Z,79.20
2018-05-10T03:32:02.396Z,77.35
2018-05-10T03:34:31.729Z,78.21
2018-05-10T03:36:57.711Z,81.06
2018-05-10T03:39:27.524Z,81.83
2018-05-10T03:41:53.456Z,81.17
2018-05-10T03:44:20.526Z,78.21
2018-05-10T03:46:46.451Z,76.97
2018-05-10T03:49:16.344Z,74.57
2018-05-10T03:51:42.286Z,77.48
2018-05-10T03:54:11.500Z,78.90
2018-05-10T03:56:37.418Z,76.04
2018-05-10T03:59:03.334Z,78.19
2018-05-10T04:01:29.223Z,79.71
2018-05-10T04:04:07.365Z,79.84
2018-05-10T04:06:45.574Z,82.79
2018-05-10T04:09:23.935Z,83.30
2018-05-10T04:11:49.842Z,83.07
2018-05-10T04:14:15.777Z,82.11
2018-05-10T04:16:41.773Z,81.62
2018-05-10T04:19:07.672Z,81.08
2018-05-10T04:21:33.631Z,80.73
2018-05-10T04:23:59.538Z,81.20
2018-05-10T04:26:25.504Z,81.22
2018-05-10T04:28:51.450Z,78.02
2018-05-10T04:31:17.334Z,80.94
2018-05-10T04:33:43.731Z,80.87
2018-05-10T04:36:09.653Z,79.44
2018-05-10T04:38:35.603Z,80.29
2018-05-10T04:41:01.571Z,81.09
2018-05-10T04:43:27.562Z,80.70
2018-05-10T04:45:53.500Z,81.72
2018-05-10T04:48:19.448Z,80.21
2018-05-10T04:50:45.378Z,80.01
2018-05-10T04:53:11.308Z,82.12
2018-05-10T04:55:37.277Z,81.49
2018-05-10T04:58:03.242Z,83.22
2018-05-10T05:00:29.148Z,83.44
2018-05-10T05:02:55.079Z,84.24
2018-05-10T05:05:21.010Z,84.64
2018-05-10T05:07:46.952Z,83.33
2018-05-10T05:10:26.310Z,83.52
2018-05-10T05:12:52.240Z,82.75
2018-05-10T05:15:18.158Z,83.55
2018-05-10T05:17:44.153Z,82.51
2018-05-10T05:20:10.075Z,82.61
2018-05-10T05:22:36.034Z,83.94
2018-05-10T05:25:02.016Z,82.95
2018-05-10T05:27:27.992Z,82.21
2018-05-10T05:29:53.925Z,83.26
2018-05-10T05:32:19.870Z,80.65
2018-05-10T05:34:45.798Z,82.37
2018-05-10T05:37:11.796Z,84.37
2018-05-10T05:39:37.818Z,83.77
2018-05-10T05:42:03.741Z,85.13
2018-05-10T05:44:29.678Z,85.08
2018-05-10T05:46:55.622Z,83.78
2018-05-10T05:49:21.548Z,82.86
2018-05-10T05:51:47.529Z,81.71
2018-05-10T05:54:13.528Z,82.20
2018-05-10T05:56:39.436Z,81.13
2018-05-10T05:59:05.340Z,79.52
2018-05-10T06:01:32.852Z,80.65
2018-05-10T06:03:58.848Z,82.85
2018-05-10T06:06:28.678Z,81.80
2018-05-10T06:08:54.625Z,81.58
2018-05-10T06:11:22.518Z,82.87
2018-05-10T06:13:48.452Z,82.42
2018-05-10T06:16:16.847Z,83.06
2018-05-10T06:18:42.786Z,84.78
2018-05-10T06:21:12.841Z,86.34
2018-05-10T06:23:38.758Z,86.19
2018-05-10T06:26:04.660Z,85.89
2018-05-10T06:28:30.562Z,87.25
2018-05-10T06:30:56.474Z,84.33
2018-05-10T06:33:23.271Z,82.12
2018-05-10T06:35:49.184Z,82.04
2018-05-10T06:38:19.084Z,80.50
2018-05-10T06:40:45.039Z,81.96
2018-05-10T06:43:12.851Z,82.52
2018-05-10T06:45:38.824Z,83.70
2018-05-10T06:48:08.789Z,84.71
2018-05-10T06:50:34.800Z,85.46
2018-05-10T06:53:02.735Z,85.54
2018-05-10T06:55:28.939Z,85.75
2018-05-10T06:57:56.882Z,84.98
2018-05-10T07:00:22.950Z,87.69
2018-05-10T07:02:48.940Z,86.31
2018-05-10T07:05:14.987Z,86.16
2018-05-10T07:07:41.156Z,86.49
2018-05-10T07:10:09.150Z,87.32
2018-05-10T07:12:35.164Z,88.76
2018-05-10T07:15:03.256Z,87.83
2018-05-10T07:17:29.401Z,86.98
2018-05-10T07:19:59.126Z,86.64
2018-05-10T07:22:25.119Z,85.05
2018-05-10T07:24:52.886Z,83.82
2018-05-10T07:27:19.013Z,85.56
2018-05-10T07:29:48.429Z,84.65
2018-05-10T07:32:14.410Z,79.62
2018-05-10T07:34:43.504Z,82.81
2018-05-10T07:37:09.500Z,80.48
2018-05-10T07:39:35.586Z,79.73
2018-05-10T07:42:01.633Z,80.46
2018-05-10T07:44:27.581Z,80.11
2018-05-10T07:46:53.673Z,79.29
2018-05-10T07:49:19.733Z,81.19
2018-05-10T07:51:48.600Z,82.33
2018-05-10T07:54:14.592Z,79.88
2018-05-10T07:56:43.376Z,80.66
2018-05-10T07:59:09.309Z,83.25
2018-05-10T08:01:38.038Z,82.96
2018-05-10T08:04:04.136Z,81.38
2018-05-10T08:06:33.770Z,79.37
2018-05-10T08:08:59.768Z,80.10
2018-05-10T08:11:28.887Z,79.17
2018-05-10T08:13:54.783Z,76.05
2018-05-10T08:16:20.732Z,75.36
2018-05-10T08:18:46.838Z,75.00
2018-05-10T08:21:12.774Z,77.55
2018-05-10T08:23:46.954Z,77.25
2018-05-10T08:26:12.938Z,72.98
2018-05-10T08:28:38.900Z,73.41
2018-05-10T08:31:04.965Z,74.52
2018-05-10T08:33:30.894Z,71.72
2018-05-10T08:35:56.927Z,71.97
2018-05-10T08:38:22.999Z,74.37
2018-05-10T08:40:48.999Z,73.64
2018-05-10T08:43:18.726Z,75.12
2018-05-10T08:45:44.774Z,77.56
2018-05-10T08:48:12.791Z,76.42
2018-05-10T08:50:38.782Z,73.00
2018-05-10T08:53:04.744Z,74.20
2018-05-10T08:55:30.680Z,73.56
2018-05-10T08:57:56.788Z,73.58
2018-05-10T09:00:26.051Z,76.46
2018-05-10T09:02:51.995Z,76.08
2018-05-10T09:05:19.106Z,77.20
2018-05-10T09:07:45.051Z,75.25
2018-05-10T09:10:14.937Z,77.20
2018-05-10T09:12:40.899Z,76.01
2018-05-10T09:15:08.316Z,76.24
2018-05-10T09:17:35.286Z,76.86
2018-05-10T09:20:04.441Z,75.93
2018-05-10T09:22:30.580Z,77.32
2018-05-10T09:24:58.650Z,75.82
2018-05-10T09:27:24.716Z,77.20
2018-05-10T09:29:50.659Z,76.09
2018-05-10T09:32:16.606Z,74.43
2018-05-10T09:34:42.553Z,76.28
2018-05-10T09:37:09.867Z,74.30
2018-05-10T09:39:35.869Z,73.62
2018-05-10T09:42:04.751Z,74.66
2018-05-10T09:44:30.668Z,75.25
2018-05-10T09:46:59.718Z,74.61
2018-05-10T09:49:25.640Z,74.42
2018-05-10T09:51:55.566Z,76.39
2018-05-10T09:54:21.553Z,75.03
2018-05-10T09:56:48.509Z,77.01
2018-05-10T09:59:14.458Z,76.35
2018-05-10T10:01:43.300Z,76.09
2018-05-10T10:04:09.268Z,75.66
2018-05-10T10:06:35.206Z,75.82
2018-05-10T10:09:01.193Z,75.97
2018-05-10T10:11:27.107Z,73.09
2018-05-10T10:13:54.828Z,71.21
2018-05-10T10:16:20.794Z,73.58
2018-05-10T10:18:49.526Z,72.55
2018-05-10T10:21:15.433Z,70.94
2018-05-10T10:23:44.260Z,72.93
2018-05-10T10:26:10.202Z,71.98
2018-05-10T10:28:39.244Z,72.75
2018-05-10T10:31:05.195Z,72.15
2018-05-10T10:33:34.750Z,72.54
2018-05-10T10:36:00.735Z,73.94
2018-05-10T10:38:29.764Z,72.97
2018-05-10T10:40:59.404Z,72.36
2018-05-10T10:43:25.358Z,72.88
2018-05-10T10:45:51.323Z,73.40
2018-05-10T10:48:17.251Z,73.67
2018-05-10T10:50:43.202Z,73.39
2018-05-10T10:53:09.116Z,72.90
2018-05-10T10:55:35.084Z,72.38
2018-05-10T10:58:01.106Z,72.17
2018-05-10T11:00:29.823Z,72.31
2018-05-10T11:02:55.818Z,72.36
2018-05-10T11:05:25.362Z,70.88
2018-05-10T11:07:51.309Z,70.21
2018-05-10T11:10:20.271Z,71.23
2018-05-10T11:12:46.204Z,69.15
2018-05-10T11:15:15.284Z,70.04
2018-05-10T11:17:41.264Z,70.96
2018-05-10T11:20:07.201Z,70.43
2018-05-10T11:22:33.188Z,70.93
2018-05-10T11:24:59.131Z,71.62
2018-05-10T11:27:25.476Z,70.15
2018-05-10T11:29:51.385Z,69.71
2018-05-10T11:32:21.045Z,69.15
2018-05-10T11:34:46.980Z,70.54
2018-05-10T11:37:16.352Z,69.65
2018-05-10T11:39:42.294Z,70.59
2018-05-10T11:42:11.239Z,70.09
2018-05-10T11:44:37.189Z,70.17
2018-05-10T11:47:04.259Z,68.60
2018-05-10T11:49:30.192Z,68.53
2018-05-10T11:52:03.011Z,67.34
2018-05-10T11:54:28.950Z,66.33
2018-05-10T11:56:54.919Z,67.35
2018-05-10T11:59:20.830Z,67.14
2018-05-10T12:01:46.782Z,67.23
2018-05-10T12:04:12.732Z,67.62
2018-05-10T12:06:38.686Z,67.64
2018-05-10T12:09:06.277Z,66.80
2018-05-10T12:11:32.274Z,67.45
2018-05-10T12:14:01.950Z,66.58
2018-05-10T12:16:27.892Z,65.90
2018-05-10T12:18:55.646Z,64.66
2018-05-10T12:21:21.600Z,65.12
2018-05-10T12:23:51.372Z,64.56
2018-05-10T12:26:17.364Z,64.61
2018-05-10T12:28:45.123Z,64.25
2018-05-10T12:31:11.119Z,63.51
2018-05-10T12:33:37.035Z,60.73
2018-05-10T12:36:03.008Z,60.97
2018-05-10T12:38:28.907Z,60.72
2018-05-10T12:40:56.740Z,61.83
2018-05-10T12:43:22.734Z,61.82
2018-05-10T12:45:52.535Z,63.16
2018-05-10T12:48:18.500Z,63.17
2018-05-10T12:50:46.187Z,63.33
2018-05-10T12:53:12.090Z,62.30
2018-05-10T12:55:42.127Z,62.62
2018-05-10T12:58:08.103Z,61.16
2018-05-10T13:00:35.826Z,61.31
2018-05-10T13:03:01.733Z,62.94
2018-05-10T13:05:31.436Z,63.05
2018-05-10T13:07:57.400Z,64.06
2018-05-10T13:10:23.282Z,65.30
2018-05-10T13:12:49.219Z,65.91
2018-05-10T13:15:15.124Z,66.38
2018-05-10T13:17:41.797Z,66.95
2018-05-10T13:20:07.750Z,67.84
2018-05-10T13:22:37.653Z,67.89
2018-05-10T13:25:03.607Z,68.61
2018-05-10T13:27:31.403Z,68.91
2018-05-10T13:29:57.383Z,69.61
2018-05-10T13:32:26.323Z,70.19
2018-05-10T13:34:52.269Z,71.85
2018-05-10T13:37:21.436Z,72.22
2018-05-10T13:39:47.403Z,72.31
2018-05-10T13:42:16.376Z,72.52
2018-05-10T13:44:42.469Z,72.58
2018-05-10T13:47:08.424Z,72.84
2018-05-10T13:49:34.385Z,74.92
2018-05-10T13:52:00.328Z,75.95
2018-05-10T13:54:26.964Z,73.90
2018-05-10T13:56:52.899Z,75.05
2018-05-10T13:59:22.740Z,75.41
2018-05-10T14:01:48.699Z,74.96
2018-05-10T14:04:18.034Z,73.86
2018-05-10T14:06:43.976Z,74.25
2018-05-10T14:09:10.972Z,73.93
2018-05-10T14:11:36.953Z,73.69
2018-05-10T14:14:06.712Z,74.45
2018-05-10T14:16:32.656Z,73.49
2018-05-10T14:19:01.984Z,73.73
2018-05-10T14:21:27.908Z,72.67
2018-05-10T14:23:53.914Z,72.46
2018-05-10T14:26:19.911Z,72.34
2018-05-10T14:28:45.866Z,72.06
2018-05-10T14:31:11.947Z,71.57
2018-05-10T14:33:37.893Z,72.93
2018-05-10T14:36:06.853Z,72.06
2018-05-10T14:38:32.803Z,72.80
2018-05-10T14:41:02.296Z,72.69
2018-05-10T14:43:30.044Z,72.38
2018-05-10T14:45:56.512Z,71.45
2018-05-10T14:48:22.477Z,71.25
2018-05-10T14:50:51.314Z,70.71
2018-05-10T14:53:17.255Z,71.47
2018-05-10T14:55:46.111Z,70.69
2018-05-10T14:58:12.063Z,70.51
2018-05-10T15:00:37.960Z,70.67
2018-05-10T15:03:03.928Z,70.88
2018-05-10T15:05:31.690Z,69.68
2018-05-10T15:07:57.618Z,68.85
2018-05-10T15:10:23.520Z,69.03
2018-05-10T15:12:52.281Z,68.30
2018-05-10T15:15:18.246Z,67.20
2018-05-10T15:17:47.256Z,67.87
2018-05-10T15:20:13.176Z,67.94
2018-05-10T15:22:42.605Z,67.73
2018-05-10T15:25:08.511Z,68.11
2018-05-10T15:27:40.398Z,68.46
2018-05-10T15:31:34.199Z,69.26
2018-05-10T15:34:00.295Z,69.30
2018-05-10T15:36:26.245Z,69.30
2018-05-10T15:38:52.185Z,67.71
2018-05-10T15:41:18.139Z,68.28
2018-05-10T15:43:44.102Z,67.40
2018-05-10T15:46:10.034Z,67.00
2018-05-10T15:48:35.988Z,67.79
2018-05-10T15:51:01.991Z,67.45
2018-05-10T15:53:27.997Z,67.67
2018-05-10T15:55:53.958Z,67.19
2018-05-10T15:58:19.952Z,67.50
2018-05-10T16:00:45.897Z,67.82
2018-05-10T16:03:11.802Z,68.07
2018-05-10T16:05:37.732Z,68.08
2018-05-10T16:08:03.677Z,68.55
2018-05-10T16:10:29.622Z,69.12
2018-05-10T16:12:55.562Z,69.56
2018-05-10T16:15:22.907Z,69.81
2018-05-10T16:17:48.896Z,69.64
2018-05-10T16:20:17.829Z,70.16
2018-05-10T16:22:43.713Z,70.40
2018-05-10T16:25:13.092Z,70.86
2018-05-10T16:27:39.026Z,71.14
2018-05-10T16:30:06.225Z,71.74
2018-05-10T16:32:32.192Z,72.29
2018-05-10T16:34:58.167Z,71.92
2018-05-10T16:37:24.088Z,72.64
2018-05-10T16:39:50.055Z,73.80
2018-05-10T16:42:18.051Z,73.76
2018-05-10T16:44:43.989Z,74.20
2018-05-10T16:47:13.693Z,74.31
2018-05-10T16:49:39.628Z,74.65
2018-05-10T16:52:08.607Z,74.46
2018-05-10T16:54:34.528Z,74.53
2018-05-10T16:57:03.664Z,74.58
2018-05-10T16:59:29.573Z,74.76
2018-05-10T17:01:57.451Z,74.43
2018-05-10T17:04:23.385Z,74.45
2018-05-10T17:06:52.454Z,74.19
2018-05-10T17:09:18.410Z,73.83
2018-05-10T17:11:44.362Z,73.87
2018-05-10T17:14:10.322Z,74.47
2018-05-10T17:16:36.289Z,74.21
2018-05-10T17:19:03.577Z,73.45
2018-05-10T17:21:29.504Z,73.51
2018-05-10T17:23:59.208Z,73.26
2018-05-10T17:26:25.124Z,72.95
2018-05-10T17:28:54.587Z,73.06
2018-05-10T17:31:20.537Z,72.86
2018-05-10T17:33:49.681Z,72.71
2018-05-10T17:36:15.652Z,72.77
2018-05-10T17:38:42.630Z,72.69
2018-05-10T17:41:08.672Z,72.30
2018-05-10T17:43:37.709Z,72.65
2018-05-10T17:46:03.638Z,71.52
2018-05-10T17:48:29.660Z,71.61
2018-05-10T17:50:55.662Z,71.19
2018-05-10T17:53:21.601Z,71.14
2018-05-10T17:55:48.911Z,71.36
2018-05-10T17:58:14.838Z,71.41
2018-05-10T18:00:44.552Z,70.67
2018-05-10T18:03:10.516Z,70.00
2018-05-10T18:05:39.752Z,69.93
2018-05-10T18:08:05.693Z,69.48
2018-05-10T18:10:34.688Z,69.87
2018-05-10T18:13:00.644Z,69.78
2018-05-10T18:15:27.571Z,69.49
2018-05-10T18:18:01.991Z,69.94
2018-05-10T18:20:27.930Z,69.29
2018-05-10T18:22:53.885Z,69.25
2018-05-10T18:25:19.824Z,68.73
2018-05-10T18:27:45.748Z,68.70
2018-05-10T18:30:11.708Z,68.68
2018-05-10T18:32:37.640Z,68.97
2018-05-10T18:35:03.620Z,68.36
2018-05-10T18:37:29.692Z,67.38
2018-05-10T18:39:55.702Z,67.88
2018-05-10T18:42:28.687Z,67.26
2018-05-10T18:44:54.708Z,67.50
2018-05-10T18:47:21.169Z,67.80
2018-05-10T18:49:48.149Z,68.01
2018-05-10T18:52:14.167Z,68.27
2018-05-10T18:54:40.193Z,68.54
2018-05-10T18:57:07.622Z,68.34
2018-05-10T18:59:33.882Z,68.22
2018-05-10T19:02:00.011Z,67.98
2018-05-10T19:04:26.106Z,68.11
2018-05-10T19:06:52.103Z,68.81
2018-05-10T19:09:21.183Z,68.74
2018-05-10T19:11:47.107Z,68.99
2018-05-10T19:14:15.545Z,69.26
2018-05-10T19:16:41.573Z,70.09
2018-05-10T19:19:09.528Z,70.08
2018-05-10T19:21:38.989Z,69.60
2018-05-10T19:24:05.103Z,69.96
2018-05-10T19:26:31.151Z,69.08
2018-05-10T19:28:58.158Z,69.87
2018-05-10T19:31:24.089Z,69.37
2018-05-10T19:33:53.298Z,68.75
2018-05-10T19:36:19.214Z,69.35
2018-05-10T19:38:45.282Z,68.28
2018-05-10T19:41:11.287Z,69.70
2018-05-10T19:43:37.279Z,69.87
2018-05-10T19:46:05.392Z,69.16
2018-05-10T19:48:32.041Z,69.01
2018-05-10T19:50:59.392Z,69.50
2018-05-10T19:53:25.345Z,68.96
2018-05-10T19:55:54.562Z,69.68
2018-05-10T19:58:20.532Z,69.24
2018-05-10T20:00:49.984Z,69.31
2018-05-10T20:03:16.012Z,68.63
2018-05-10T20:05:45.279Z,68.88
2018-05-10T20:08:11.631Z,69.92
2018-05-10T20:10:39.134Z,69.41
2018-05-10T20:13:07.130Z,70.12
2018-05-10T20:15:33.126Z,69.93
2018-05-10T20:17:59.093Z,70.62
2018-05-10T20:20:25.045Z,69.77
2018-05-10T20:22:51.144Z,70.05
2018-05-10T20:25:17.240Z,69.99
2018-05-10T20:27:44.893Z,69.94
2018-05-10T20:30:10.941Z,69.79
2018-05-10T20:32:39.285Z,69.59
2018-05-10T20:35:05.310Z,69.31
2018-05-10T20:37:34.594Z,70.17
2018-05-10T20:40:01.018Z,69.80
2018-05-10T20:42:30.511Z,70.31
2018-05-10T20:44:56.447Z,70.26
2018-05-10T20:47:23.983Z,70.02
2018-05-10T20:49:49.897Z,70.12
2018-05-10T20:52:15.967Z,69.71
2018-05-10T20:54:41.992Z,70.47
2018-05-10T20:57:07.915Z,71.09
2018-05-10T20:59:35.606Z,71.26
2018-05-10T21:02:01.555Z,71.87
2018-05-10T21:04:30.800Z,71.26
2018-05-10T21:06:56.763Z,71.39
2018-05-10T21:09:25.787Z,71.16
2018-05-10T21:11:51.744Z,71.63
2018-05-10T21:14:19.323Z,72.03
2018-05-10T21:16:45.299Z,72.59
2018-05-10T21:19:14.413Z,72.58
2018-05-10T21:21:40.361Z,71.87
2018-05-10T21:24:09.900Z,72.37
2018-05-10T21:26:35.843Z,72.99
2018-05-10T21:29:01.838Z,72.79
2018-05-10T21:31:27.763Z,72.69
2018-05-10T21:33:53.715Z,72.43
2018-05-10T21:36:20.614Z,72.52
2018-05-10T21:38:46.594Z,72.31
2018-05-10T21:41:17.687Z,72.53
2018-05-10T21:43:43.842Z,72.37
2018-05-10T21:46:09.847Z,72.01
2018-05-10T21:48:35.829Z,71.95
2018-05-10T21:51:04.806Z,72.79
2018-05-10T21:53:30.797Z,72.92
2018-05-10T21:55:59.635Z,73.03
2018-05-10T21:58:25.568Z,73.46
2018-05-10T22:00:54.410Z,74.83
2018-05-10T22:03:20.374Z,74.28
2018-05-10T22:05:54.330Z,73.78
2018-05-10T22:08:20.786Z,73.78
2018-05-10T22:10:46.939Z,73.79
2018-05-10T22:13:12.904Z,73.56
2018-05-10T22:15:38.878Z,73.72
2018-05-10T22:18:04.856Z,73.80
2018-05-10T22:20:30.796Z,73.32
2018-05-10T22:22:56.739Z,73.44
2018-05-10T22:25:22.669Z,73.16
2018-05-10T22:27:52.173Z,73.28
2018-05-10T22:30:18.140Z,73.22
2018-05-10T22:32:45.225Z,73.36
2018-05-10T22:35:11.220Z,72.87
2018-05-10T22:37:40.805Z,73.10
2018-05-10T22:40:06.769Z,73.33
2018-05-10T22:42:32.730Z,73.16
2018-05-10T22:44:58.661Z,73.20
2018-05-10T22:47:24.610Z,73.05
2018-05-10T22:49:52.288Z,72.77
2018-05-10T22:52:18.251Z,73.50
2018-05-10T22:54:47.360Z,73.13
2018-05-10T22:57:13.316Z,73.72
2018-05-10T22:59:40.502Z,73.67
2018-05-10T23:02:06.445Z,73.50
2018-05-10T23:04:35.378Z,73.96
2018-05-10T23:07:01.307Z,73.84
2018-05-10T23:09:30.107Z,74.00
2018-05-10T23:11:56.938Z,74.00
2018-05-10T23:14:26.394Z,73.88
2018-05-10T23:16:52.317Z,73.38
2018-05-10T23:19:18.295Z,73.42
2018-05-10T23:21:44.246Z,73.32
2018-05-10T23:24:10.216Z,73.60
2018-05-10T23:26:36.839Z,73.77
2018-05-10T23:29:02.812Z,74.35
2018-05-10T23:31:32.821Z,74.80
2018-05-10T23:33:58.844Z,74.65
2018-05-10T23:36:26.524Z,74.74
2018-05-10T23:38:52.496Z,75.16
2018-05-10T23:41:20.507Z,75.79
2018-05-10T23:43:46.469Z,75.85
2018-05-10T23:46:15.415Z,75.44
2018-05-10T23:48:41.387Z,75.80
2018-05-10T23:51:10.376Z,75.54
2018-05-10T23:53:36.354Z,75.26
2018-05-10T23:56:02.284Z,75.20
2018-05-10T23:58:28.223Z,75.04
